Time;durP1;ratioP1;P1;durP2;ratioP2;P2;SDS_P1;SDS_P2;PMS_P1;PMS_P2;Temp;Humidity;BMP_temperature;BMP_pressure;BME280_temperature;BME280_humidity;BME280_pressure;Samples;Min_cycle;Max_cycle;Signal;HPM_P1;HPM_P2
2021/08/03 00:00:25;;;;;;;;;7.00;5.00;;;;;18.84;68.29;101096.22;5056346;28;45339;-85
2021/08/03 00:02:53;;;;;;;;;6.00;5.67;;;;;18.80;68.50;101082.06;5056244;28;45374;-84
2021/08/03 00:05:26;;;;;;;;;7.33;5.67;;;;;18.83;68.66;101086.44;5056051;28;45480;-85
2021/08/03 00:07:59;;;;;;;;;7.67;6.00;;;;;18.76;68.54;101072.34;5056018;28;45415;-86
2021/08/03 00:10:25;;;;;;;;;7.00;4.67;;;;;18.82;68.57;101088.25;5071560;27;45530;-86
2021/08/03 00:12:52;;;;;;;;;6.00;6.00;;;;;18.78;68.56;101081.19;5057987;28;45214;-86
2021/08/03 00:15:22;;;;;;;;;9.00;6.67;;;;;18.81;68.77;101090.91;5058754;28;46199;-85
2021/08/03 00:17:51;;;;;;;;;4.67;4.67;;;;;18.82;68.20;101093.56;5061149;28;45418;-86
2021/08/03 00:20:16;;;;;;;;;6.00;6.00;;;;;18.83;68.42;101090.00;5061567;28;45339;-88
2021/08/03 00:22:42;;;;;;;;;6.67;6.67;;;;;18.83;68.59;101083.78;5061629;28;45366;-86
2021/08/03 00:25:09;;;;;;;;;8.00;6.00;;;;;18.81;67.73;101070.47;5078069;28;48002;-86
2021/08/03 00:27:34;;;;;;;;;6.33;4.67;;;;;18.80;68.31;101067.84;5075988;27;45405;-86
2021/08/03 00:30:02;;;;;;;;;5.00;4.67;;;;;18.82;68.37;101066.94;5059802;28;45349;-86
2021/08/03 00:32:27;;;;;;;;;6.33;5.33;;;;;18.83;68.10;101070.47;5060327;28;45422;-86
2021/08/03 00:34:53;;;;;;;;;5.00;5.00;;;;;18.82;68.29;101066.94;5059465;28;45224;-87
2021/08/03 00:37:18;;;;;;;;;10.33;5.33;;;;;18.79;67.70;101061.63;5058858;28;45307;-85
2021/08/03 00:39:44;;;;;;;;;5.00;4.67;;;;;18.80;68.12;101066.06;5058555;28;45351;-85
2021/08/03 00:42:09;;;;;;;;;7.67;6.00;;;;;18.78;67.94;101059.00;5058538;28;45312;-85
2021/08/03 00:44:46;;;;;;;;;5.00;5.00;;;;;18.80;67.73;101060.75;5074904;28;47117;-85
2021/08/03 00:47:13;;;;;;;;;5.33;3.67;;;;;18.79;67.86;101052.75;5059798;28;45406;-85
2021/08/03 00:49:40;;;;;;;;;7.67;6.67;;;;;18.79;68.38;101048.31;5059126;28;45418;-85
2021/08/03 00:52:08;;;;;;;;;6.00;6.00;;;;;18.70;68.65;101033.31;5059385;28;45415;-85
2021/08/03 00:54:34;;;;;;;;;7.33;7.33;;;;;18.78;68.04;101040.34;5059195;28;46011;-85
2021/08/03 00:57:00;;;;;;;;;8.00;6.00;;;;;18.80;68.68;101047.44;5058727;28;45351;-85
2021/08/03 00:59:25;;;;;;;;;7.67;7.33;;;;;18.71;68.63;101028.88;5059768;28;45168;-85
2021/08/03 01:01:51;;;;;;;;;6.00;5.67;;;;;18.75;68.70;101044.81;5074486;27;45275;-86
2021/08/03 01:04:17;;;;;;;;;8.00;7.00;;;;;18.70;68.40;101030.66;5059010;28;45443;-86
2021/08/03 01:06:45;;;;;;;;;8.33;7.00;;;;;18.81;68.18;101048.28;5059081;28;45417;-85
2021/08/03 01:09:23;;;;;;;;;9.00;6.00;;;;;18.80;68.85;101041.22;5058433;28;45390;-85
2021/08/03 01:12:05;;;;;;;;;6.00;6.00;;;;;18.78;68.44;101038.56;5058751;28;45450;-85
2021/08/03 01:14:40;;;;;;;;;7.33;7.33;;;;;18.82;68.61;101040.31;5058832;28;47896;-86
2021/08/03 01:17:09;;;;;;;;;7.33;6.67;;;;;18.81;69.04;101034.97;5058581;28;45453;-84
2021/08/03 01:19:42;;;;;;;;;7.33;7.33;;;;;18.81;68.36;101038.53;5058442;28;45447;-86
2021/08/03 01:22:13;;;;;;;;;7.00;6.00;;;;;18.80;68.58;101036.78;5058946;28;45367;-86
2021/08/03 01:25:00;;;;;;;;;7.00;7.00;;;;;18.76;67.79;101029.72;5056958;28;47351;-86
2021/08/03 01:27:30;;;;;;;;;3.33;3.33;;;;;18.77;67.78;101025.25;5058451;28;45453;-86
2021/08/03 01:29:57;;;;;;;;;5.00;5.00;;;;;18.75;67.87;101030.63;5058258;28;45231;-86
2021/08/03 01:32:30;;;;;;;;;9.67;7.00;;;;;18.71;68.57;101021.78;5058755;28;45536;-85
2021/08/03 01:34:57;;;;;;;;;6.33;5.67;;;;;18.74;67.77;101020.88;5058282;28;46594;-86
2021/08/03 01:37:26;;;;;;;;;7.33;6.67;;;;;18.73;68.55;101017.31;5058453;28;45473;-86
2021/08/03 01:40:11;;;;;;;;;7.00;6.67;;;;;18.76;68.05;101016.41;5058329;28;45396;-86
2021/08/03 01:42:40;;;;;;;;;8.00;7.67;;;;;18.77;68.67;101020.81;5058190;28;45337;-86
2021/08/03 01:45:08;;;;;;;;;5.00;5.00;;;;;18.76;68.30;101013.75;5057877;28;46829;-86
2021/08/03 01:47:34;;;;;;;;;7.67;7.67;;;;;18.79;67.71;101012.81;5059206;28;45441;-87
2021/08/03 01:50:01;;;;;;;;;9.33;8.33;;;;;18.79;68.12;101008.38;5059230;28;45407;-87
2021/08/03 01:52:28;;;;;;;;;9.33;7.67;;;;;18.77;68.12;101004.84;5057860;28;45497;-86
2021/08/03 01:54:54;;;;;;;;;6.33;6.33;;;;;18.77;68.20;101007.50;5059004;28;45223;-85
2021/08/03 01:57:22;;;;;;;;;7.33;6.00;;;;;18.78;68.33;101003.06;5058886;28;45446;-86
2021/08/03 01:59:49;;;;;;;;;7.67;6.67;;;;;18.73;68.29;101000.47;5074550;28;45344;-86
2021/08/03 02:02:19;;;;;;;;;6.00;6.00;;;;;18.78;67.94;101011.06;5058257;28;45446;-86
2021/08/03 02:04:47;;;;;;;;;7.00;6.33;;;;;18.79;68.24;101010.13;5058435;28;45326;-86
2021/08/03 02:07:15;;;;;;;;;8.33;5.67;;;;;18.76;68.30;101013.75;5059063;28;45352;-86
2021/08/03 02:09:43;;;;;;;;;6.67;6.00;;;;;18.75;68.55;101006.66;5058460;28;45471;-86
2021/08/03 02:12:10;;;;;;;;;8.33;7.33;;;;;18.79;68.15;101019.03;5058155;28;45595;-86
2021/08/03 02:14:36;;;;;;;;;7.33;7.00;;;;;18.79;68.57;101023.47;5057815;28;46698;-86
2021/08/03 02:17:02;;;;;;;;;7.00;7.00;;;;;18.69;68.18;101018.25;5058008;28;45346;-86
2021/08/03 02:19:28;;;;;;;;;9.33;8.33;;;;;18.77;68.29;101023.47;5057675;28;45560;-86
2021/08/03 02:21:54;;;;;;;;;8.67;5.00;;;;;18.77;68.10;101025.25;5058096;28;45298;-87
2021/08/03 02:24:19;;;;;;;;;6.67;5.67;;;;;18.76;68.24;101024.41;5057282;28;45407;-86
2021/08/03 02:26:45;;;;;;;;;7.00;6.00;;;;;18.77;67.79;101025.25;5057471;28;45426;-87
2021/08/03 02:29:11;;;;;;;;;6.33;6.00;;;;;18.69;67.88;101018.25;5056321;28;45373;-86
2021/08/03 02:31:44;;;;;;;;;5.67;5.67;;;;;18.75;68.53;101023.50;5057800;28;45444;-86
2021/08/03 02:34:45;;;;;;;;;7.00;6.00;;;;;18.76;68.48;101021.75;5059443;28;45489;-86
2021/08/03 02:37:15;;;;;;;;;6.00;5.67;;;;;18.75;68.61;101014.63;4997330;28;45423;-86
2021/08/03 02:39:41;;;;;;;;;8.33;5.67;;;;;18.75;68.36;101014.63;4998028;28;45485;-86
2021/08/03 02:42:09;;;;;;;;;4.67;4.67;;;;;18.75;68.71;101018.19;4997469;28;45384;-86
2021/08/03 02:44:36;;;;;;;;;8.67;5.67;;;;;18.74;68.62;101012.88;4996495;28;46189;-87
2021/08/03 02:47:13;;;;;;;;;9.67;6.00;;;;;18.73;68.68;101009.34;4997023;28;45339;-86
2021/08/03 02:50:05;;;;;;;;;8.00;6.00;;;;;18.63;68.85;100992.56;4996886;28;45331;-86
2021/08/03 02:52:27;;;;;;;;;7.00;7.00;;;;;18.67;69.00;101001.44;4995939;28;45515;-86
2021/08/03 02:55:09;;;;;;;;;6.00;6.00;;;;;18.72;69.13;101014.66;4995096;28;45614;-86
2021/08/03 02:57:37;;;;;;;;;7.67;6.33;;;;;18.72;68.76;101012.00;5001620;28;45463;-86
2021/08/03 03:00:03;;;;;;;;;9.67;9.00;;;;;18.68;68.72;101007.59;5020848;28;44922;-86
2021/08/03 03:02:31;;;;;;;;;8.33;7.67;;;;;18.67;68.64;101008.53;5020576;28;45442;-86
2021/08/03 03:05:02;;;;;;;;;9.67;8.00;;;;;18.62;69.09;101000.59;4995143;28;45459;-86
2021/08/03 03:07:32;;;;;;;;;7.00;7.00;;;;;18.66;69.02;101009.41;4994914;28;45389;-86
2021/08/03 03:10:01;;;;;;;;;10.00;10.00;;;;;18.59;69.47;100998.81;4978666;28;45520;-87
2021/08/03 03:12:31;;;;;;;;;8.33;8.33;;;;;18.60;70.45;100997.94;4997795;28;45486;-85
2021/08/03 03:15:01;;;;;;;;;10.67;8.00;;;;;18.58;70.41;100999.75;5056770;28;46650;-86
2021/08/03 03:17:32;;;;;;;;;9.67;8.00;;;;;18.57;70.78;101000.63;5056921;28;45386;-86
2021/08/03 03:19:59;;;;;;;;;8.33;8.00;;;;;18.54;70.52;100995.34;5056587;28;45528;-86
2021/08/03 03:22:26;;;;;;;;;7.00;7.00;;;;;18.50;70.34;101004.28;5057124;28;45295;-86
2021/08/03 03:24:54;;;;;;;;;9.33;6.00;;;;;18.45;70.18;100992.78;5056411;28;46178;-86
2021/08/03 03:27:20;;;;;;;;;6.33;6.33;;;;;18.39;70.08;100981.31;5055457;28;45287;-86
2021/08/03 03:29:47;;;;;;;;;5.00;5.00;;;;;18.38;69.78;100984.00;5072086;27;45530;-86
2021/08/03 03:32:13;;;;;;;;;7.33;7.33;;;;;18.32;70.41;100971.63;5057018;28;45413;-86
2021/08/03 03:34:41;;;;;;;;;6.00;6.00;;;;;18.24;70.75;100961.09;5056640;28;47022;-86
2021/08/03 03:37:07;;;;;;;;;7.67;7.00;;;;;18.27;70.33;100973.47;5057226;28;45457;-86
2021/08/03 03:39:35;;;;;;;;;6.00;6.00;;;;;18.30;70.40;100980.56;5057158;28;45394;-86
2021/08/03 03:42:04;;;;;;;;;8.33;6.67;;;;;18.23;70.79;100985.06;5056240;28;45429;-86
2021/08/03 03:44:30;;;;;;;;;9.33;8.33;;;;;18.25;70.81;100993.91;5056494;28;45442;-86
2021/08/03 03:47:16;;;;;;;;;8.67;7.33;;;;;18.24;70.98;100989.47;5058216;28;45349;-86
2021/08/03 03:49:47;;;;;;;;;8.33;7.33;;;;;18.14;70.81;100984.22;5060577;28;45417;-86
2021/08/03 03:52:18;;;;;;;;;13.00;10.00;;;;;18.23;71.01;100995.69;5060676;28;45314;-86
2021/08/03 03:54:45;;;;;;;;;14.67;14.00;;;;;18.19;70.83;100992.16;5059953;28;45484;-86
2021/08/03 03:57:13;;;;;;;;;27.67;24.33;;;;;18.18;71.38;100987.75;5059624;28;45394;-86
2021/08/03 03:59:41;;;;;;;;;25.67;23.67;;;;;18.16;70.63;100995.72;5059850;28;45376;-86
2021/08/03 04:02:10;;;;;;;;;28.00;23.00;;;;;18.18;70.78;100995.75;5060308;28;45314;-86
2021/08/03 04:04:38;;;;;;;;;19.67;16.00;;;;;18.19;71.16;100993.97;5059864;28;45378;-86
2021/08/03 04:07:04;;;;;;;;;16.33;14.00;;;;;18.16;71.31;100997.50;5059503;28;45422;-86
2021/08/03 04:09:30;;;;;;;;;13.33;13.33;;;;;18.08;70.86;100986.94;5059999;28;45284;-86
2021/08/03 04:11:55;;;;;;;;;10.00;10.00;;;;;18.13;70.71;100997.53;5059669;28;45480;-86
2021/08/03 04:14:24;;;;;;;;;11.67;10.33;;;;;18.15;70.28;101001.94;5059635;28;46224;-86
2021/08/03 04:16:50;;;;;;;;;13.00;10.33;;;;;18.14;70.59;101004.63;5059467;28;45279;-86
2021/08/03 04:19:15;;;;;;;;;9.33;9.33;;;;;18.17;70.37;101009.94;5059581;28;45189;-86
2021/08/03 04:21:42;;;;;;;;;8.00;8.00;;;;;18.09;70.76;101004.66;5059743;28;45283;-86
2021/08/03 04:24:08;;;;;;;;;6.67;6.67;;;;;18.14;70.47;101013.50;5059349;28;45301;-86
2021/08/03 04:26:34;;;;;;;;;9.00;6.33;;;;;18.12;70.52;101015.28;5059441;28;45336;-86
2021/08/03 04:28:59;;;;;;;;;11.00;9.67;;;;;18.12;70.17;101017.94;5059812;28;45935;-86
2021/08/03 04:31:24;;;;;;;;;10.00;8.67;;;;;18.11;70.33;101007.28;5059643;28;45331;-85
2021/08/03 04:33:51;;;;;;;;;8.00;8.00;;;;;18.11;70.42;101000.19;5059256;28;45453;-86
2021/08/03 04:36:16;;;;;;;;;7.67;6.33;;;;;18.11;70.20;101005.53;5059449;28;45478;-86
2021/08/03 04:38:42;;;;;;;;;10.33;10.33;;;;;18.06;70.06;100994.06;5059233;28;45382;-86
2021/08/03 04:41:07;;;;;;;;;8.67;8.00;;;;;18.10;70.09;101005.53;5059384;28;45450;-85
2021/08/03 04:43:33;;;;;;;;;7.67;7.33;;;;;18.08;70.23;100994.94;5058971;28;46411;-86
2021/08/03 04:45:58;;;;;;;;;6.67;6.67;;;;;18.07;70.12;100987.84;5057702;28;45456;-86
2021/08/03 04:48:23;;;;;;;;;6.33;6.33;;;;;18.04;70.18;100978.09;5059462;28;45248;-86
2021/08/03 04:50:49;;;;;;;;;6.33;6.33;;;;;18.05;70.06;100984.31;5059340;28;45288;-85
2021/08/03 04:53:14;;;;;;;;;7.33;5.33;;;;;17.97;69.84;100976.41;5059013;28;45636;-86
2021/08/03 04:55:40;;;;;;;;;3.33;3.33;;;;;17.97;70.48;100975.53;5058968;28;45314;-87
2021/08/03 04:58:05;;;;;;;;;3.67;3.67;;;;;17.92;69.88;100979.09;5058575;28;45461;-86
2021/08/03 05:00:30;;;;;;;;;2.33;2.33;;;;;17.94;69.84;100990.59;5059562;28;45441;-86
2021/08/03 05:02:56;;;;;;;;;3.00;3.00;;;;;17.89;69.73;100986.25;5059100;28;45775;-86
2021/08/03 05:05:21;;;;;;;;;5.00;3.00;;;;;17.90;69.44;100986.22;5058794;28;45336;-86
2021/08/03 05:07:58;;;;;;;;;3.33;3.33;;;;;17.87;69.39;100991.56;5057518;28;45295;-87
2021/08/03 05:10:24;;;;;;;;;2.00;2.00;;;;;17.85;69.27;100982.72;5059093;28;45461;-84
2021/08/03 05:12:50;;;;;;;;;2.67;2.67;;;;;17.82;69.34;100982.75;5058549;28;45443;-85
2021/08/03 05:15:15;;;;;;;;;3.00;2.00;;;;;17.76;69.74;100985.47;5058652;28;45286;-84
2021/08/03 05:17:40;;;;;;;;;2.67;2.67;;;;;17.78;69.59;100986.31;5058905;28;45417;-84
2021/08/03 05:20:07;;;;;;;;;2.00;2.00;;;;;17.77;69.64;100985.44;5058624;28;45329;-85
2021/08/03 05:22:33;;;;;;;;;1.00;1.00;;;;;17.76;69.35;100988.13;5058559;28;46265;-84
2021/08/03 05:24:59;;;;;;;;;2.00;1.00;;;;;17.72;69.68;100992.59;5058445;28;45453;-84
2021/08/03 05:27:25;;;;;;;;;1.33;1.33;;;;;17.63;69.46;100977.59;5058541;28;45314;-85
2021/08/03 05:29:51;;;;;;;;;1.00;1.00;;;;;17.67;68.84;100989.97;5058892;28;45359;-85
2021/08/03 05:32:16;;;;;;;;;1.00;1.00;;;;;17.70;69.75;100991.72;5058570;28;46433;-84
2021/08/03 05:34:41;;;;;;;;;2.33;2.00;;;;;17.67;69.07;100984.63;5059109;28;45331;-85
2021/08/03 05:37:07;;;;;;;;;1.67;1.67;;;;;17.66;69.12;100987.31;5059034;28;45238;-85
2021/08/03 05:39:33;;;;;;;;;2.67;1.00;;;;;17.65;69.59;100990.84;5058692;28;45334;-85
2021/08/03 05:41:59;;;;;;;;;1.00;1.00;;;;;17.70;68.68;100992.56;5058219;28;45522;-85
2021/08/03 05:44:24;;;;;;;;;3.00;2.00;;;;;17.74;70.02;100995.22;5058219;28;45510;-85
2021/08/03 05:46:50;;;;;;;;;3.00;1.33;;;;;17.65;69.86;100980.22;5058484;28;45377;-84
2021/08/03 05:49:16;;;;;;;;;2.00;2.00;;;;;17.75;69.94;101003.19;5058764;28;45339;-85
2021/08/03 05:51:41;;;;;;;;;3.00;3.00;;;;;17.73;69.95;100998.75;5056947;28;47980;-85
2021/08/03 05:54:07;;;;;;;;;2.00;2.00;;;;;17.71;69.44;100998.78;5058446;28;45370;-85
2021/08/03 05:56:33;;;;;;;;;2.00;2.00;;;;;17.77;69.12;101008.47;5058227;28;45775;-86
2021/08/03 05:58:58;;;;;;;;;3.00;2.00;;;;;17.73;69.21;100999.66;5058491;28;45357;-85
2021/08/03 06:01:23;;;;;;;;;3.33;1.00;;;;;17.75;69.14;101000.53;5056761;28;46961;-85
2021/08/03 06:03:49;;;;;;;;;2.00;2.00;;;;;17.81;69.50;101008.44;5056903;28;45444;-85
2021/08/03 06:06:15;;;;;;;;;1.00;1.00;;;;;17.82;69.40;101006.69;5056881;28;45384;-86
2021/08/03 06:08:42;;;;;;;;;2.33;2.00;;;;;17.84;69.40;101004.88;5058146;28;45238;-86
2021/08/03 06:11:15;;;;;;;;;2.00;2.00;;;;;17.74;69.06;100995.22;5055459;28;46591;-86
2021/08/03 06:13:46;;;;;;;;;3.67;1.33;;;;;17.85;68.45;101009.31;5057740;28;45239;-86
2021/08/03 06:16:18;;;;;;;;;1.00;1.00;;;;;17.85;68.12;101017.31;5057926;28;45401;-86
2021/08/03 06:18:46;;;;;;;;;2.00;2.00;;;;;17.86;68.29;101021.72;5073597;28;45572;-85
2021/08/03 06:21:13;;;;;;;;;2.33;2.00;;;;;17.81;68.17;101011.09;5057413;28;45412;-85
2021/08/03 06:23:41;;;;;;;;;2.00;2.00;;;;;17.90;68.55;101015.47;5057438;28;45457;-86
2021/08/03 06:26:08;;;;;;;;;1.00;1.00;;;;;17.89;68.52;101004.84;5057714;28;45449;-86
2021/08/03 06:28:35;;;;;;;;;2.00;2.00;;;;;17.94;69.47;101008.34;5057960;28;45397;-85
2021/08/03 06:31:02;;;;;;;;;3.00;1.00;;;;;17.98;69.46;101026.03;5056392;28;48024;-86
2021/08/03 06:33:28;;;;;;;;;1.67;1.67;;;;;18.04;69.32;101025.13;5057628;28;45425;-86
2021/08/03 06:35:53;;;;;;;;;2.00;2.00;;;;;18.07;69.47;101019.75;5057702;28;45505;-86
2021/08/03 06:38:19;;;;;;;;;1.67;1.67;;;;;18.11;69.07;101026.81;5057907;28;45374;-86
2021/08/03 06:41:21;;;;;;;;;3.00;3.00;;;;;18.13;69.15;101024.13;5057296;28;45555;-85
2021/08/03 06:43:55;;;;;;;;;3.00;3.00;;;;;18.14;69.04;101028.56;5059925;28;45420;-86
2021/08/03 06:46:23;;;;;;;;;4.00;2.00;;;;;18.17;69.34;101034.75;5060076;28;45433;-86
2021/08/03 06:48:59;;;;;;;;;5.33;4.00;;;;;18.19;68.66;101039.19;5061000;28;45338;-86
2021/08/03 06:51:30;;;;;;;;;4.00;4.00;;;;;18.18;68.33;101033.00;5059873;28;46356;-86
2021/08/03 06:53:59;;;;;;;;;3.00;3.00;;;;;18.20;68.17;101040.94;5063506;28;45376;-86
2021/08/03 06:56:29;;;;;;;;;4.00;3.00;;;;;18.20;68.47;101035.63;5063094;28;45275;-86
2021/08/03 06:59:17;;;;;;;;;2.00;2.00;;;;;18.21;68.94;101038.25;5058344;28;45291;-85
2021/08/03 07:01:47;;;;;;;;;3.33;3.33;;;;;18.23;68.43;101040.94;5057447;28;45406;-86
2021/08/03 07:04:18;;;;;;;;;6.00;4.00;;;;;18.19;68.83;101033.88;5057172;28;45388;-86
2021/08/03 07:06:49;;;;;;;;;2.67;2.67;;;;;18.24;69.24;101040.91;5057606;28;45354;-85
2021/08/03 07:09:15;;;;;;;;;4.00;4.00;;;;;18.26;68.85;101052.44;5057915;28;45687;-85
2021/08/03 07:11:42;;;;;;;;;1.00;1.00;;;;;18.29;69.20;101054.19;5057042;28;47051;-86
2021/08/03 07:14:08;;;;;;;;;3.67;3.67;;;;;18.31;69.88;101055.03;5057083;28;45440;-86
2021/08/03 07:16:34;;;;;;;;;2.00;2.00;;;;;18.37;69.79;101062.06;5057186;28;45393;-86
2021/08/03 07:19:01;;;;;;;;;5.00;3.00;;;;;18.33;69.66;101050.59;5057194;28;45263;-85
2021/08/03 07:21:27;;;;;;;;;4.00;3.00;;;;;18.39;69.35;101052.31;5056706;28;45288;-85
2021/08/03 07:23:56;;;;;;;;;3.00;3.00;;;;;18.48;68.69;101062.88;5057013;28;45879;-85
2021/08/03 07:26:23;;;;;;;;;3.33;1.33;;;;;18.47;68.16;101054.88;5057412;28;45450;-85
2021/08/03 07:28:49;;;;;;;;;5.00;3.33;;;;;18.48;68.57;101051.34;5057221;28;45415;-84
2021/08/03 07:31:14;;;;;;;;;1.67;1.67;;;;;18.56;68.62;101068.09;5056588;28;45330;-84
2021/08/03 07:33:40;;;;;;;;;4.67;1.67;;;;;18.58;67.66;101063.66;5056833;28;45378;-85
2021/08/03 07:36:05;;;;;;;;;3.00;3.00;;;;;18.51;67.32;101053.94;5055417;28;45385;-85
2021/08/03 07:38:31;;;;;;;;;1.33;1.33;;;;;18.66;67.30;101073.31;5072694;28;45490;-85
2021/08/03 07:40:57;;;;;;;;;2.67;2.67;;;;;18.71;66.97;101075.03;5056424;28;46074;-85
2021/08/03 07:43:22;;;;;;;;;2.00;2.00;;;;;18.71;67.18;101064.41;5056814;28;45404;-85
2021/08/03 07:45:47;;;;;;;;;2.67;1.67;;;;;18.72;66.48;101051.94;5072330;27;45379;-85
2021/08/03 07:48:13;;;;;;;;;3.00;3.00;;;;;18.81;67.07;101061.59;5056910;28;45200;-85
2021/08/03 07:50:39;;;;;;;;;2.67;2.33;;;;;18.86;66.29;101063.34;5056563;28;45487;-86
2021/08/03 07:53:04;;;;;;;;;3.67;2.33;;;;;18.93;67.38;101063.25;5056498;28;45418;-85
2021/08/03 07:55:29;;;;;;;;;2.67;2.67;;;;;18.92;67.33;101043.72;5056799;28;45703;-85
2021/08/03 07:57:55;;;;;;;;;3.67;2.67;;;;;19.10;66.74;101063.91;5056640;28;45306;-85
2021/08/03 08:00:20;;;;;;;;;2.67;2.67;;;;;19.19;66.12;101056.72;5056614;28;45437;-85
2021/08/03 08:02:46;;;;;;;;;4.00;3.67;;;;;19.26;66.33;101063.75;5056721;28;45452;-86
2021/08/03 08:05:11;;;;;;;;;4.00;3.00;;;;;19.30;66.34;101057.47;5056925;28;45270;-85
2021/08/03 08:07:36;;;;;;;;;5.33;4.67;;;;;19.39;65.99;101058.25;5056957;28;45362;-85
2021/08/03 08:10:03;;;;;;;;;2.67;2.67;;;;;19.43;66.16;101052.84;5057439;28;45335;-85
2021/08/03 08:12:28;;;;;;;;;3.67;3.67;;;;;19.48;65.59;101058.09;5058460;28;45381;-86
2021/08/03 08:14:53;;;;;;;;;6.33;5.00;;;;;19.47;66.18;101056.34;5073695;28;45395;-85
2021/08/03 08:17:19;;;;;;;;;5.00;4.00;;;;;19.50;65.20;101058.09;5058513;28;45448;-86
2021/08/03 08:19:44;;;;;;;;;5.00;5.00;;;;;19.49;64.63;101056.31;5072107;28;46122;-86
2021/08/03 08:22:10;;;;;;;;;2.33;2.33;;;;;19.48;64.28;101050.09;5056255;28;45232;-86
2021/08/03 08:24:36;;;;;;;;;7.00;5.00;;;;;19.46;65.39;101038.56;5057041;28;45315;-86
2021/08/03 08:27:01;;;;;;;;;7.33;5.00;;;;;19.48;64.83;101036.78;5056703;28;45318;-86
2021/08/03 08:29:27;;;;;;;;;3.33;3.33;;;;;19.54;64.74;101044.66;5055281;28;47210;-85
2021/08/03 08:31:52;;;;;;;;;6.33;5.00;;;;;19.58;65.91;101039.31;5055306;28;45355;-86
2021/08/03 08:34:19;;;;;;;;;5.00;4.00;;;;;19.67;65.37;101029.38;5058294;28;45504;-85
2021/08/03 08:36:44;;;;;;;;;4.33;3.33;;;;;19.98;65.06;101038.66;5060287;28;45402;-86
2021/08/03 08:39:10;;;;;;;;;6.00;4.00;;;;;20.38;63.90;101038.00;5059950;28;45554;-85
2021/08/03 08:41:38;;;;;;;;;3.67;3.33;;;;;20.58;63.21;101042.97;5060034;28;45397;-85
2021/08/03 08:44:04;;;;;;;;;8.00;5.00;;;;;20.61;62.75;101040.22;5061599;28;45506;-86
2021/08/03 08:46:37;;;;;;;;;3.67;3.67;;;;;20.78;62.67;101045.22;5070254;28;45206;-85
2021/08/03 08:49:05;;;;;;;;;7.33;3.33;;;;;21.17;62.85;101041.75;5073009;28;45800;-86
2021/08/03 08:51:32;;;;;;;;;3.67;3.67;;;;;21.63;62.08;101036.28;5078733;28;45876;-85
2021/08/03 08:53:58;;;;;;;;;3.67;3.00;;;;;22.11;60.76;101038.69;5078762;28;45318;-86
2021/08/03 08:56:24;;;;;;;;;5.00;4.00;;;;;22.49;60.26;101037.69;5068759;28;45184;-87
2021/08/03 08:58:49;;;;;;;;;4.00;4.00;;;;;22.92;59.14;101046.34;5065695;28;45496;-86
2021/08/03 09:01:15;;;;;;;;;3.00;3.00;;;;;23.28;58.69;101045.25;5076375;28;46134;-86
2021/08/03 09:03:41;;;;;;;;;3.00;3.00;;;;;23.82;57.04;101047.16;5060034;28;45548;-86
2021/08/03 09:06:07;;;;;;;;;4.33;4.00;;;;;24.18;55.44;101043.25;5060213;28;45457;-86
2021/08/03 09:08:46;;;;;;;;;4.67;4.00;;;;;24.64;55.46;101051.50;5057825;28;47250;-86
2021/08/03 09:11:16;;;;;;;;;4.67;3.33;;;;;24.90;54.13;101050.56;5060289;28;45287;-86
2021/08/03 09:13:49;;;;;;;;;3.67;3.67;;;;;24.95;52.57;101048.59;5061359;28;45320;-86
2021/08/03 09:16:14;;;;;;;;;2.67;2.67;;;;;24.75;52.03;101042.16;5064311;28;45819;-86
2021/08/03 09:18:43;;;;;;;;;3.00;2.00;;;;;24.73;52.26;101055.66;5070164;28;45382;-86
2021/08/03 09:21:25;;;;;;;;;4.00;2.00;;;;;24.95;52.14;101049.47;5068081;28;45481;-87
2021/08/03 09:23:59;;;;;;;;;3.00;3.00;;;;;25.07;51.09;101037.41;5084536;27;45471;-86
2021/08/03 09:26:46;;;;;;;;;2.00;2.00;;;;;25.09;50.92;101045.41;5068270;28;45317;-86
2021/08/03 09:29:13;;;;;;;;;5.00;3.00;;;;;24.95;50.66;101043.22;5069785;28;46152;-85
2021/08/03 09:31:41;;;;;;;;;2.33;2.00;;;;;24.83;51.18;101040.03;5068903;28;45453;-86
2021/08/03 09:34:12;;;;;;;;;0.33;0.33;;;;;24.61;49.58;101040.88;5069986;28;45193;-86
2021/08/03 09:36:58;;;;;;;;;4.00;3.00;;;;;24.50;50.23;101051.13;5068928;28;44863;-86
2021/08/03 09:39:45;;;;;;;;;2.67;2.67;;;;;24.29;51.34;101048.28;5069427;28;45391;-87
2021/08/03 09:42:14;;;;;;;;;4.33;3.00;;;;;24.48;51.04;101064.63;5070352;28;45234;-87
2021/08/03 09:45:07;;;;;;;;;2.00;2.00;;;;;24.52;50.98;101055.53;5058335;28;45284;-86
2021/08/03 09:47:36;;;;;;;;;2.67;1.00;;;;;24.37;50.40;101048.00;5058880;28;45292;-87
2021/08/03 09:50:08;;;;;;;;;2.00;2.00;;;;;24.15;50.95;101041.56;5059028;28;46456;-86
2021/08/03 09:52:35;;;;;;;;;4.00;4.00;;;;;24.04;51.62;101050.00;5059232;28;45381;-86
2021/08/03 09:55:16;;;;;;;;;2.00;2.00;;;;;23.90;51.61;101049.59;5060056;28;45343;-86
2021/08/03 09:57:44;;;;;;;;;5.00;4.33;;;;;23.70;51.65;101049.34;5060355;28;45367;-87
2021/08/03 10:00:34;;;;;;;;;3.00;3.00;;;;;23.55;52.59;101049.81;5076836;28;48172;-87
2021/08/03 10:03:00;;;;;;;;;3.00;3.00;;;;;23.35;51.74;101041.44;5074702;27;45413;-86
2021/08/03 10:05:25;;;;;;;;;3.33;3.00;;;;;23.28;52.68;101055.09;5058975;28;45329;-87
2021/08/03 10:07:51;;;;;;;;;4.00;4.00;;;;;23.17;52.72;101053.63;5059316;28;45470;-87
2021/08/03 10:10:17;;;;;;;;;6.00;4.33;;;;;23.06;52.99;101050.38;5058945;28;46292;-88
2021/08/03 10:12:43;;;;;;;;;2.33;2.33;;;;;23.01;52.90;101054.09;5059137;28;45341;-86
2021/08/03 10:15:10;;;;;;;;;4.33;4.33;;;;;22.99;52.84;101057.75;5059583;28;45363;-86
2021/08/03 10:17:36;;;;;;;;;3.33;3.00;;;;;22.83;52.48;101034.06;5059091;28;45431;-86
2021/08/03 10:20:03;;;;;;;;;5.00;3.00;;;;;22.89;53.58;101051.78;5058996;28;45477;-86
2021/08/03 10:22:33;;;;;;;;;4.67;4.00;;;;;22.98;54.00;101051.50;5057287;28;45967;-86
2021/08/03 10:25:10;;;;;;;;;3.00;3.00;;;;;23.33;54.84;101050.50;5058785;28;45470;-86
2021/08/03 10:27:42;;;;;;;;;2.00;2.00;;;;;23.77;54.56;101058.06;5058502;28;45406;-86
2021/08/03 10:30:09;;;;;;;;;5.67;4.00;;;;;24.20;54.33;101049.44;5058308;28;45503;-87
2021/08/03 10:32:43;;;;;;;;;4.00;3.00;;;;;24.45;52.72;101037.00;5057229;28;45408;-87
2021/08/03 10:35:19;;;;;;;;;4.00;4.00;;;;;24.67;50.35;101034.38;5059353;28;45356;-87
2021/08/03 10:37:57;;;;;;;;;5.00;3.00;;;;;24.70;50.78;101030.72;5068954;28;45302;-86
2021/08/03 10:40:45;;;;;;;;;4.00;4.00;;;;;24.65;50.39;101033.56;5080381;28;45253;-87
2021/08/03 10:43:22;;;;;;;;;4.67;3.00;;;;;24.55;50.44;101035.72;5059628;28;45392;-87
2021/08/03 10:46:09;;;;;;;;;4.33;4.33;;;;;24.45;50.16;101034.31;5058997;28;45248;-86
2021/08/03 10:48:38;;;;;;;;;5.00;3.00;;;;;24.31;51.02;101042.84;5065569;28;45386;-86
2021/08/03 10:51:15;;;;;;;;;3.00;3.00;;;;;24.18;50.48;101044.13;5067214;28;45603;-87
2021/08/03 10:53:59;;;;;;;;;6.67;4.00;;;;;24.03;50.31;101058.09;5059666;28;45485;-86
2021/08/03 10:56:24;;;;;;;;;4.00;4.00;;;;;23.91;50.41;101051.34;5057301;28;45395;-87
2021/08/03 10:58:50;;;;;;;;;4.67;4.33;;;;;23.78;49.64;101046.38;5073494;28;45354;-86
2021/08/03 11:01:44;;;;;;;;;5.00;5.00;;;;;23.64;50.64;101052.22;5057979;28;46007;-86
2021/08/03 11:04:42;;;;;;;;;3.00;3.00;;;;;23.50;50.30;101047.28;5059086;28;45218;-87
2021/08/03 11:07:26;;;;;;;;;3.00;3.00;;;;;23.39;50.24;101050.28;5066410;28;45264;-86
2021/08/03 11:09:56;;;;;;;;;3.00;3.00;;;;;23.30;50.49;101046.09;5073438;28;45343;-86
2021/08/03 11:12:46;;;;;;;;;4.00;4.00;;;;;23.39;50.70;101061.03;5081169;28;47429;-86
2021/08/03 11:15:21;;;;;;;;;3.00;3.00;;;;;23.66;51.23;101062.88;5078531;28;44673;-87
2021/08/03 11:17:53;;;;;;;;;4.00;4.00;;;;;23.87;51.13;101055.06;5062252;28;45297;-87
2021/08/03 11:20:38;;;;;;;;;3.00;3.00;;;;;24.00;50.68;101058.22;5064646;28;45433;-86
2021/08/03 11:23:13;;;;;;;;;3.00;3.00;;;;;24.03;51.34;101055.41;5080742;28;45085;-85
2021/08/03 11:25:40;;;;;;;;;2.33;2.33;;;;;24.00;50.43;101055.53;5081372;28;44712;-85
2021/08/03 11:28:14;;;;;;;;;5.00;4.67;;;;;23.88;49.85;101046.94;5081604;28;44721;-86
2021/08/03 11:30:41;;;;;;;;;3.00;3.00;;;;;23.74;49.60;101036.69;5081465;28;45261;-85
2021/08/03 11:33:07;;;;;;;;;3.33;3.33;;;;;23.70;48.90;101049.34;5078850;28;47605;-86